sensor_id;sensor_type;location;lat;lon;timestamp;temperature;humidity
66568;DHT22;53422;49.296;6.900;2022-09-09T00:02:19;19.00;78.40
66568;DHT22;53422;49.296;6.900;2022-09-09T00:05:19;19.00;78.80
66568;DHT22;53422;49.296;6.900;2022-09-09T00:07:51;19.00;78.60
66568;DHT22;53422;49.296;6.900;2022-09-09T00:10:34;19.00;78.60
66568;DHT22;53422;49.296;6.900;2022-09-09T00:13:24;19.00;78.80
66568;DHT22;53422;49.296;6.900;2022-09-09T00:16:07;19.00;78.90
66568;DHT22;53422;49.296;6.900;2022-09-09T00:19:12;19.00;78.80
66568;DHT22;53422;49.296;6.900;2022-09-09T00:22:00;19.00;78.70
66568;DHT22;53422;49.296;6.900;2022-09-09T00:24:42;19.00;78.70
66568;DHT22;53422;49.296;6.900;2022-09-09T00:30:12;19.00;78.80
66568;DHT22;53422;49.296;6.900;2022-09-09T00:32:37;19.00;78.90
66568;DHT22;53422;49.296;6.900;2022-09-09T00:37:38;19.00;78.80
66568;DHT22;53422;49.296;6.900;2022-09-09T00:40:18;19.00;78.60
66568;DHT22;53422;49.296;6.900;2022-09-09T00:42:52;19.00;78.80
66568;DHT22;53422;49.296;6.900;2022-09-09T00:45:41;19.00;78.90
66568;DHT22;53422;49.296;6.900;2022-09-09T00:48:11;19.00;78.80
66568;DHT22;53422;49.296;6.900;2022-09-09T00:50:53;18.90;78.50
66568;DHT22;53422;49.296;6.900;2022-09-09T00:56:22;18.90;78.80
66568;DHT22;53422;49.296;6.900;2022-09-09T01:01:49;18.90;78.80
66568;DHT22;53422;49.296;6.900;2022-09-09T01:04:23;18.90;78.80
66568;DHT22;53422;49.296;6.900;2022-09-09T01:06:59;18.90;78.60
66568;DHT22;53422;49.296;6.900;2022-09-09T01:09:34;18.90;78.70
66568;DHT22;53422;49.296;6.900;2022-09-09T01:12:15;18.90;78.80
66568;DHT22;53422;49.296;6.900;2022-09-09T01:14:49;18.90;78.90
66568;DHT22;53422;49.296;6.900;2022-09-09T01:17:27;18.90;78.60
66568;DHT22;53422;49.296;6.900;2022-09-09T01:20:19;18.90;78.80
66568;DHT22;53422;49.296;6.900;2022-09-09T01:27:48;18.80;78.90
66568;DHT22;53422;49.296;6.900;2022-09-09T01:30:17;18.80;78.70
66568;DHT22;53422;49.296;6.900;2022-09-09T01:32:49;18.80;78.90
66568;DHT22;53422;49.296;6.900;2022-09-09T01:37:55;18.70;78.80
66568;DHT22;53422;49.296;6.900;2022-09-09T01:40:21;18.80;78.90
66568;DHT22;53422;49.296;6.900;2022-09-09T01:42:47;18.70;78.30
66568;DHT22;53422;49.296;6.900;2022-09-09T01:45:13;18.70;78.80
66568;DHT22;53422;49.296;6.900;2022-09-09T01:47:39;18.70;78.70
66568;DHT22;53422;49.296;6.900;2022-09-09T01:50:07;18.70;78.70
66568;DHT22;53422;49.296;6.900;2022-09-09T01:52:35;18.80;78.70
66568;DHT22;53422;49.296;6.900;2022-09-09T01:55:01;18.70;78.70
66568;DHT22;53422;49.296;6.900;2022-09-09T01:57:42;18.70;78.70
66568;DHT22;53422;49.296;6.900;2022-09-09T02:00:12;18.70;78.60
66568;DHT22;53422;49.296;6.900;2022-09-09T02:02:48;18.70;79.10
66568;DHT22;53422;49.296;6.900;2022-09-09T02:05:21;18.70;79.30
66568;DHT22;53422;49.296;6.900;2022-09-09T02:07:55;18.70;79.10
66568;DHT22;53422;49.296;6.900;2022-09-09T02:10:32;18.70;79.10
66568;DHT22;53422;49.296;6.900;2022-09-09T02:13:10;18.70;79.40
66568;DHT22;53422;49.296;6.900;2022-09-09T02:15:55;18.70;79.30
66568;DHT22;53422;49.296;6.900;2022-09-09T02:18:35;18.70;79.20
66568;DHT22;53422;49.296;6.900;2022-09-09T02:21:02;18.70;79.30
66568;DHT22;53422;49.296;6.900;2022-09-09T02:23:28;18.70;80.20
66568;DHT22;53422;49.296;6.900;2022-09-09T02:25:56;18.70;79.20
66568;DHT22;53422;49.296;6.900;2022-09-09T02:28:26;18.70;79.10
66568;DHT22;53422;49.296;6.900;2022-09-09T02:30:53;18.70;79.20
66568;DHT22;53422;49.296;6.900;2022-09-09T02:33:23;18.70;79.20
66568;DHT22;53422;49.296;6.900;2022-09-09T02:35:51;18.70;79.20
66568;DHT22;53422;49.296;6.900;2022-09-09T02:38:17;18.70;79.10
66568;DHT22;53422;49.296;6.900;2022-09-09T02:40:44;18.70;79.20
66568;DHT22;53422;49.296;6.900;2022-09-09T02:43:10;18.70;79.10
66568;DHT22;53422;49.296;6.900;2022-09-09T02:45:48;18.70;79.20
66568;DHT22;53422;49.296;6.900;2022-09-09T02:48:24;18.70;79.20
66568;DHT22;53422;49.296;6.900;2022-09-09T02:51:04;18.70;80.20
66568;DHT22;53422;49.296;6.900;2022-09-09T02:53:58;18.70;79.20
66568;DHT22;53422;49.296;6.900;2022-09-09T02:56:29;18.60;79.20
66568;DHT22;53422;49.296;6.900;2022-09-09T02:58:56;18.60;79.10
66568;DHT22;53422;49.296;6.900;2022-09-09T03:01:21;18.60;79.40
66568;DHT22;53422;49.296;6.900;2022-09-09T03:03:47;18.60;79.30
66568;DHT22;53422;49.296;6.900;2022-09-09T03:06:13;18.60;79.30
66568;DHT22;53422;49.296;6.900;2022-09-09T03:08:39;18.60;79.30
66568;DHT22;53422;49.296;6.900;2022-09-09T03:11:07;18.60;79.20
66568;DHT22;53422;49.296;6.900;2022-09-09T03:13:32;18.50;79.20
66568;DHT22;53422;49.296;6.900;2022-09-09T03:15:59;18.50;79.40
66568;DHT22;53422;49.296;6.900;2022-09-09T03:18:25;18.50;79.30
66568;DHT22;53422;49.296;6.900;2022-09-09T03:20:50;18.50;79.10
66568;DHT22;53422;49.296;6.900;2022-09-09T03:23:16;18.50;79.50
66568;DHT22;53422;49.296;6.900;2022-09-09T03:25:52;18.50;79.40
66568;DHT22;53422;49.296;6.900;2022-09-09T03:28:20;18.50;79.30
66568;DHT22;53422;49.296;6.900;2022-09-09T03:30:46;18.50;79.60
66568;DHT22;53422;49.296;6.900;2022-09-09T03:33:11;18.50;79.40
66568;DHT22;53422;49.296;6.900;2022-09-09T03:35:37;18.50;79.50
66568;DHT22;53422;49.296;6.900;2022-09-09T03:38:04;18.50;79.50
66568;DHT22;53422;49.296;6.900;2022-09-09T03:40:29;18.50;79.60
66568;DHT22;53422;49.296;6.900;2022-09-09T03:42:56;18.40;79.50
66568;DHT22;53422;49.296;6.900;2022-09-09T03:45:21;18.40;79.40
66568;DHT22;53422;49.296;6.900;2022-09-09T03:47:47;18.40;79.50
66568;DHT22;53422;49.296;6.900;2022-09-09T03:50:12;18.40;79.60
66568;DHT22;53422;49.296;6.900;2022-09-09T03:52:40;18.40;79.60
66568;DHT22;53422;49.296;6.900;2022-09-09T03:55:06;18.40;79.50
66568;DHT22;53422;49.296;6.900;2022-09-09T03:57:32;18.40;79.50
66568;DHT22;53422;49.296;6.900;2022-09-09T04:00:03;18.40;79.50
66568;DHT22;53422;49.296;6.900;2022-09-09T04:02:30;18.40;79.50
66568;DHT22;53422;49.296;6.900;2022-09-09T04:04:56;18.30;79.60
66568;DHT22;53422;49.296;6.900;2022-09-09T04:07:21;18.30;79.50
66568;DHT22;53422;49.296;6.900;2022-09-09T04:09:47;18.30;79.50
66568;DHT22;53422;49.296;6.900;2022-09-09T04:12:13;18.30;79.80
66568;DHT22;53422;49.296;6.900;2022-09-09T04:14:39;18.30;79.50
66568;DHT22;53422;49.296;6.900;2022-09-09T04:17:04;18.30;79.80
66568;DHT22;53422;49.296;6.900;2022-09-09T04:19:32;18.30;80.50
66568;DHT22;53422;49.296;6.900;2022-09-09T04:21:57;18.30;79.60
66568;DHT22;53422;49.296;6.900;2022-09-09T04:24:23;18.30;79.70
66568;DHT22;53422;49.296;6.900;2022-09-09T04:26:50;18.30;79.70
66568;DHT22;53422;49.296;6.900;2022-09-09T04:29:16;18.30;79.50
66568;DHT22;53422;49.296;6.900;2022-09-09T04:31:41;18.30;79.80
66568;DHT22;53422;49.296;6.900;2022-09-09T04:34:08;18.30;79.90
66568;DHT22;53422;49.296;6.900;2022-09-09T04:36:34;18.30;80.00
66568;DHT22;53422;49.296;6.900;2022-09-09T04:39:00;18.30;80.00
66568;DHT22;53422;49.296;6.900;2022-09-09T04:41:27;18.30;80.10
66568;DHT22;53422;49.296;6.900;2022-09-09T04:43:52;18.30;80.00
66568;DHT22;53422;49.296;6.900;2022-09-09T04:46:19;18.30;80.30
66568;DHT22;53422;49.296;6.900;2022-09-09T04:48:45;18.30;80.10
66568;DHT22;53422;49.296;6.900;2022-09-09T04:51:13;18.30;80.00
66568;DHT22;53422;49.296;6.900;2022-09-09T04:53:39;18.30;80.20
66568;DHT22;53422;49.296;6.900;2022-09-09T04:56:10;18.30;80.10
66568;DHT22;53422;49.296;6.900;2022-09-09T04:58:36;18.30;80.30
66568;DHT22;53422;49.296;6.900;2022-09-09T05:01:16;18.30;80.30
66568;DHT22;53422;49.296;6.900;2022-09-09T05:03:43;18.30;80.00
66568;DHT22;53422;49.296;6.900;2022-09-09T05:06:18;18.30;80.30
66568;DHT22;53422;49.296;6.900;2022-09-09T05:08:45;18.30;80.20
66568;DHT22;53422;49.296;6.900;2022-09-09T05:13:47;18.30;80.20
66568;DHT22;53422;49.296;6.900;2022-09-09T05:16:13;18.30;80.10
66568;DHT22;53422;49.296;6.900;2022-09-09T05:18:40;18.30;80.30
66568;DHT22;53422;49.296;6.900;2022-09-09T05:21:07;18.30;80.10
66568;DHT22;53422;49.296;6.900;2022-09-09T05:23:33;18.30;80.20
66568;DHT22;53422;49.296;6.900;2022-09-09T05:25:59;18.30;80.10
66568;DHT22;53422;49.296;6.900;2022-09-09T05:28:26;18.30;80.30
66568;DHT22;53422;49.296;6.900;2022-09-09T05:31:12;18.30;80.40
66568;DHT22;53422;49.296;6.900;2022-09-09T05:33:41;18.30;80.20
66568;DHT22;53422;49.296;6.900;2022-09-09T05:36:10;18.30;80.30
66568;DHT22;53422;49.296;6.900;2022-09-09T05:38:38;18.30;80.30
66568;DHT22;53422;49.296;6.900;2022-09-09T05:41:04;18.30;80.30
66568;DHT22;53422;49.296;6.900;2022-09-09T05:43:30;18.30;80.30
66568;DHT22;53422;49.296;6.900;2022-09-09T05:46:05;18.30;80.20
66568;DHT22;53422;49.296;6.900;2022-09-09T05:48:33;18.30;80.40
66568;DHT22;53422;49.296;6.900;2022-09-09T05:51:00;18.30;80.50
66568;DHT22;53422;49.296;6.900;2022-09-09T05:53:27;18.30;80.40
66568;DHT22;53422;49.296;6.900;2022-09-09T05:56:07;18.30;80.30
66568;DHT22;53422;49.296;6.900;2022-09-09T05:58:34;18.30;80.40
66568;DHT22;53422;49.296;6.900;2022-09-09T06:01:07;18.30;80.40
66568;DHT22;53422;49.296;6.900;2022-09-09T06:03:38;18.30;80.40
66568;DHT22;53422;49.296;6.900;2022-09-09T06:06:06;18.30;80.50
66568;DHT22;53422;49.296;6.900;2022-09-09T06:08:40;18.30;80.90
66568;DHT22;53422;49.296;6.900;2022-09-09T06:11:08;18.30;80.60
66568;DHT22;53422;49.296;6.900;2022-09-09T06:13:34;18.30;80.60
66568;DHT22;53422;49.296;6.900;2022-09-09T06:16:02;18.30;80.30
66568;DHT22;53422;49.296;6.900;2022-09-09T06:18:28;18.30;80.50
66568;DHT22;53422;49.296;6.900;2022-09-09T06:23:26;18.30;80.80
66568;DHT22;53422;49.296;6.900;2022-09-09T06:26:04;18.30;80.80
66568;DHT22;53422;49.296;6.900;2022-09-09T06:28:32;18.30;80.80
66568;DHT22;53422;49.296;6.900;2022-09-09T06:31:02;18.40;80.70
66568;DHT22;53422;49.296;6.900;2022-09-09T06:33:34;18.30;80.50
66568;DHT22;53422;49.296;6.900;2022-09-09T06:36:00;18.30;80.40
66568;DHT22;53422;49.296;6.900;2022-09-09T06:38:26;18.40;80.80
66568;DHT22;53422;49.296;6.900;2022-09-09T06:40:58;18.40;81.00
66568;DHT22;53422;49.296;6.900;2022-09-09T06:43:28;18.30;80.90
66568;DHT22;53422;49.296;6.900;2022-09-09T06:46:05;18.30;81.00
66568;DHT22;53422;49.296;6.900;2022-09-09T06:48:30;18.30;81.20
66568;DHT22;53422;49.296;6.900;2022-09-09T06:51:05;18.30;81.00
66568;DHT22;53422;49.296;6.900;2022-09-09T06:53:32;18.40;81.00
66568;DHT22;53422;49.296;6.900;2022-09-09T06:56:00;18.40;81.20
66568;DHT22;53422;49.296;6.900;2022-09-09T06:58:27;18.40;81.00
66568;DHT22;53422;49.296;6.900;2022-09-09T07:01:05;18.40;81.20
66568;DHT22;53422;49.296;6.900;2022-09-09T07:03:31;18.40;81.20
66568;DHT22;53422;49.296;6.900;2022-09-09T07:05:57;18.40;81.10
66568;DHT22;53422;49.296;6.900;2022-09-09T07:08:24;18.40;80.90
66568;DHT22;53422;49.296;6.900;2022-09-09T07:10:53;18.40;81.00
66568;DHT22;53422;49.296;6.900;2022-09-09T07:13:28;18.50;81.10
66568;DHT22;53422;49.296;6.900;2022-09-09T07:15:53;18.50;81.40
66568;DHT22;53422;49.296;6.900;2022-09-09T07:18:19;18.50;81.40
66568;DHT22;53422;49.296;6.900;2022-09-09T07:20:55;18.50;81.30
66568;DHT22;53422;49.296;6.900;2022-09-09T07:23:21;18.50;81.20
66568;DHT22;53422;49.296;6.900;2022-09-09T07:25:47;18.50;81.00
66568;DHT22;53422;49.296;6.900;2022-09-09T07:28:14;18.50;81.00
66568;DHT22;53422;49.296;6.900;2022-09-09T07:30:39;18.50;81.00
66568;DHT22;53422;49.296;6.900;2022-09-09T07:33:06;18.60;82.10
66568;DHT22;53422;49.296;6.900;2022-09-09T07:35:32;18.50;80.90
66568;DHT22;53422;49.296;6.900;2022-09-09T07:38:00;18.60;81.00
66568;DHT22;53422;49.296;6.900;2022-09-09T07:40:26;18.60;81.10
66568;DHT22;53422;49.296;6.900;2022-09-09T07:42:52;18.60;81.30
66568;DHT22;53422;49.296;6.900;2022-09-09T07:45:18;18.60;80.90
66568;DHT22;53422;49.296;6.900;2022-09-09T07:47:43;18.70;81.90
66568;DHT22;53422;49.296;6.900;2022-09-09T07:50:10;18.70;81.00
66568;DHT22;53422;49.296;6.900;2022-09-09T07:52:36;18.70;81.00
66568;DHT22;53422;49.296;6.900;2022-09-09T07:55:02;18.70;81.10
66568;DHT22;53422;49.296;6.900;2022-09-09T07:57:29;18.80;80.80
66568;DHT22;53422;49.296;6.900;2022-09-09T07:59:57;18.80;80.70
66568;DHT22;53422;49.296;6.900;2022-09-09T08:02:25;18.90;80.70
66568;DHT22;53422;49.296;6.900;2022-09-09T08:04:53;18.90;80.30
66568;DHT22;53422;49.296;6.900;2022-09-09T08:07:19;18.90;79.90
66568;DHT22;53422;49.296;6.900;2022-09-09T08:09:46;19.00;80.60
66568;DHT22;53422;49.296;6.900;2022-09-09T08:12:12;19.00;79.90
66568;DHT22;53422;49.296;6.900;2022-09-09T08:14:38;19.00;80.00
66568;DHT22;53422;49.296;6.900;2022-09-09T08:17:05;19.00;79.90
66568;DHT22;53422;49.296;6.900;2022-09-09T08:19:31;19.10;79.90
66568;DHT22;53422;49.296;6.900;2022-09-09T08:22:01;19.10;80.10
66568;DHT22;53422;49.296;6.900;2022-09-09T08:24:28;19.10;79.70
66568;DHT22;53422;49.296;6.900;2022-09-09T08:26:53;19.20;80.50
66568;DHT22;53422;49.296;6.900;2022-09-09T08:29:19;19.20;79.40
66568;DHT22;53422;49.296;6.900;2022-09-09T08:31:50;19.20;79.10
66568;DHT22;53422;49.296;6.900;2022-09-09T08:34:17;19.30;79.10
66568;DHT22;53422;49.296;6.900;2022-09-09T08:36:46;19.30;79.50
66568;DHT22;53422;49.296;6.900;2022-09-09T08:39:14;19.30;79.50
66568;DHT22;53422;49.296;6.900;2022-09-09T08:52:47;19.50;78.00
66568;DHT22;53422;49.296;6.900;2022-09-09T08:58:04;19.60;77.60
66568;DHT22;53422;49.296;6.900;2022-09-09T09:11:41;20.00;76.10
66568;DHT22;53422;49.296;6.900;2022-09-09T09:14:14;20.10;75.70
66568;DHT22;53422;49.296;6.900;2022-09-09T09:17:00;20.20;75.60
66568;DHT22;53422;49.296;6.900;2022-09-09T09:19:26;20.30;75.40
66568;DHT22;53422;49.296;6.900;2022-09-09T09:25:08;20.50;74.30
66568;DHT22;53422;49.296;6.900;2022-09-09T09:27:58;20.60;74.20
66568;DHT22;53422;49.296;6.900;2022-09-09T09:30:42;20.80;74.20
66568;DHT22;53422;49.296;6.900;2022-09-09T09:36:06;20.90;73.20
66568;DHT22;53422;49.296;6.900;2022-09-09T09:38:35;21.00;72.40
66568;DHT22;53422;49.296;6.900;2022-09-09T09:41:01;21.00;71.60
66568;DHT22;53422;49.296;6.900;2022-09-09T09:43:28;21.10;71.00
66568;DHT22;53422;49.296;6.900;2022-09-09T09:45:55;21.10;72.10
66568;DHT22;53422;49.296;6.900;2022-09-09T09:48:23;21.20;71.40
66568;DHT22;53422;49.296;6.900;2022-09-09T09:50:57;21.20;71.60
66568;DHT22;53422;49.296;6.900;2022-09-09T09:53:29;21.20;71.60
66568;DHT22;53422;49.296;6.900;2022-09-09T09:56:02;21.30;71.10
66568;DHT22;53422;49.296;6.900;2022-09-09T09:58:31;21.30;71.30
66568;DHT22;53422;49.296;6.900;2022-09-09T10:01:00;21.30;70.50
66568;DHT22;53422;49.296;6.900;2022-09-09T10:03:29;21.30;71.50
66568;DHT22;53422;49.296;6.900;2022-09-09T10:05:54;21.40;70.50
66568;DHT22;53422;49.296;6.900;2022-09-09T10:08:22;21.40;70.20
66568;DHT22;53422;49.296;6.900;2022-09-09T10:11:04;21.30;69.20
66568;DHT22;53422;49.296;6.900;2022-09-09T10:19:35;21.50;69.30
66568;DHT22;53422;49.296;6.900;2022-09-09T10:22:27;21.50;68.80
66568;DHT22;53422;49.296;6.900;2022-09-09T10:33:45;21.50;70.10
66568;DHT22;53422;49.296;6.900;2022-09-09T10:36:19;21.60;69.50
66568;DHT22;53422;49.296;6.900;2022-09-09T10:38:47;21.50;69.90
66568;DHT22;53422;49.296;6.900;2022-09-09T10:41:21;21.60;71.20
66568;DHT22;53422;49.296;6.900;2022-09-09T10:54:49;21.40;67.80
66568;DHT22;53422;49.296;6.900;2022-09-09T10:59:57;21.40;67.20
66568;DHT22;53422;49.296;6.900;2022-09-09T11:02:33;21.50;68.70
66568;DHT22;53422;49.296;6.900;2022-09-09T11:05:19;21.50;69.10
66568;DHT22;53422;49.296;6.900;2022-09-09T11:13:01;21.60;67.90
66568;DHT22;53422;49.296;6.900;2022-09-09T11:15:44;21.60;68.60
66568;DHT22;53422;49.296;6.900;2022-09-09T11:18:15;21.70;67.90
66568;DHT22;53422;49.296;6.900;2022-09-09T11:20:45;21.70;67.60
66568;DHT22;53422;49.296;6.900;2022-09-09T11:23:18;21.80;68.00
66568;DHT22;53422;49.296;6.900;2022-09-09T11:25:50;21.80;66.50
66568;DHT22;53422;49.296;6.900;2022-09-09T11:28:42;21.90;66.30
66568;DHT22;53422;49.296;6.900;2022-09-09T11:39:38;22.00;66.20
66568;DHT22;53422;49.296;6.900;2022-09-09T11:42:12;22.00;66.90
66568;DHT22;53422;49.296;6.900;2022-09-09T11:44:41;22.10;67.40
66568;DHT22;53422;49.296;6.900;2022-09-09T11:47:23;22.00;67.60
66568;DHT22;53422;49.296;6.900;2022-09-09T11:50:41;22.00;67.60
66568;DHT22;53422;49.296;6.900;2022-09-09T11:52:43;22.00;68.30
66568;DHT22;53422;49.296;6.900;2022-09-09T11:57:39;22.10;68.10
66568;DHT22;53422;49.296;6.900;2022-09-09T12:00:06;22.10;68.10
66568;DHT22;53422;49.296;6.900;2022-09-09T12:02:31;22.00;67.90
66568;DHT22;53422;49.296;6.900;2022-09-09T12:05:02;22.00;67.60
66568;DHT22;53422;49.296;6.900;2022-09-09T12:07:37;21.90;68.40
66568;DHT22;53422;49.296;6.900;2022-09-09T12:12:44;21.80;68.60
66568;DHT22;53422;49.296;6.900;2022-09-09T12:17:44;21.70;69.80
66568;DHT22;53422;49.296;6.900;2022-09-09T12:20:30;21.70;70.30
66568;DHT22;53422;49.296;6.900;2022-09-09T12:28:20;21.70;69.20
66568;DHT22;53422;49.296;6.900;2022-09-09T12:31:10;21.80;69.70
66568;DHT22;53422;49.296;6.900;2022-09-09T12:33:44;21.90;69.90
66568;DHT22;53422;49.296;6.900;2022-09-09T12:36:27;21.90;70.40
66568;DHT22;53422;49.296;6.900;2022-09-09T12:38:55;21.90;70.60
66568;DHT22;53422;49.296;6.900;2022-09-09T12:41:27;21.90;70.80
66568;DHT22;53422;49.296;6.900;2022-09-09T12:44:05;21.90;70.70
66568;DHT22;53422;49.296;6.900;2022-09-09T12:46:43;22.00;71.30
66568;DHT22;53422;49.296;6.900;2022-09-09T12:49:32;21.90;71.70
66568;DHT22;53422;49.296;6.900;2022-09-09T12:52:25;21.80;72.10
66568;DHT22;53422;49.296;6.900;2022-09-09T12:54:52;21.50;71.40
66568;DHT22;53422;49.296;6.900;2022-09-09T12:57:20;21.40;73.50
66568;DHT22;53422;49.296;6.900;2022-09-09T12:59:47;21.40;73.80
66568;DHT22;53422;49.296;6.900;2022-09-09T13:02:22;21.30;73.30
66568;DHT22;53422;49.296;6.900;2022-09-09T13:04:49;21.30;74.00
66568;DHT22;53422;49.296;6.900;2022-09-09T13:07:19;21.20;73.50
66568;DHT22;53422;49.296;6.900;2022-09-09T13:09:45;21.20;73.90
66568;DHT22;53422;49.296;6.900;2022-09-09T13:12:19;21.10;75.00
66568;DHT22;53422;49.296;6.900;2022-09-09T13:14:49;21.10;76.00
66568;DHT22;53422;49.296;6.900;2022-09-09T13:17:24;21.00;76.80
66568;DHT22;53422;49.296;6.900;2022-09-09T13:19:50;20.90;76.60
66568;DHT22;53422;49.296;6.900;2022-09-09T13:22:36;20.90;77.00
66568;DHT22;53422;49.296;6.900;2022-09-09T13:25:06;20.80;78.10
66568;DHT22;53422;49.296;6.900;2022-09-09T13:27:34;20.80;78.20
66568;DHT22;53422;49.296;6.900;2022-09-09T13:30:27;20.80;79.40
66568;DHT22;53422;49.296;6.900;2022-09-09T13:35:32;20.70;79.00
66568;DHT22;53422;49.296;6.900;2022-09-09T13:38:05;20.70;79.00
66568;DHT22;53422;49.296;6.900;2022-09-09T13:40:32;20.70;79.10
66568;DHT22;53422;49.296;6.900;2022-09-09T13:42:58;20.80;78.80
66568;DHT22;53422;49.296;6.900;2022-09-09T13:45:25;20.80;79.60
66568;DHT22;53422;49.296;6.900;2022-09-09T13:47:55;20.80;79.90
66568;DHT22;53422;49.296;6.900;2022-09-09T13:50:26;20.90;79.50
66568;DHT22;53422;49.296;6.900;2022-09-09T13:52:54;20.90;78.90
66568;DHT22;53422;49.296;6.900;2022-09-09T13:55:23;20.90;79.20
66568;DHT22;53422;49.296;6.900;2022-09-09T13:58:03;21.00;79.10
66568;DHT22;53422;49.296;6.900;2022-09-09T14:00:32;21.00;79.80
66568;DHT22;53422;49.296;6.900;2022-09-09T14:02:59;21.00;78.70
66568;DHT22;53422;49.296;6.900;2022-09-09T14:05:27;21.10;78.20
66568;DHT22;53422;49.296;6.900;2022-09-09T14:07:53;21.10;77.50
66568;DHT22;53422;49.296;6.900;2022-09-09T14:10:19;21.20;77.40
66568;DHT22;53422;49.296;6.900;2022-09-09T14:12:45;21.20;76.90
66568;DHT22;53422;49.296;6.900;2022-09-09T14:15:12;21.30;77.00
66568;DHT22;53422;49.296;6.900;2022-09-09T14:17:38;21.30;76.40
66568;DHT22;53422;49.296;6.900;2022-09-09T14:20:05;21.40;76.00
66568;DHT22;53422;49.296;6.900;2022-09-09T14:22:35;21.40;76.20
66568;DHT22;53422;49.296;6.900;2022-09-09T14:25:01;21.40;75.60
66568;DHT22;53422;49.296;6.900;2022-09-09T14:27:26;21.50;75.90
66568;DHT22;53422;49.296;6.900;2022-09-09T14:29:52;21.40;75.30
66568;DHT22;53422;49.296;6.900;2022-09-09T14:32:18;21.40;74.50
66568;DHT22;53422;49.296;6.900;2022-09-09T14:34:44;21.40;74.70
66568;DHT22;53422;49.296;6.900;2022-09-09T14:37:09;21.40;74.50
66568;DHT22;53422;49.296;6.900;2022-09-09T14:39:36;21.40;75.00
66568;DHT22;53422;49.296;6.900;2022-09-09T14:42:03;21.40;74.60
66568;DHT22;53422;49.296;6.900;2022-09-09T14:44:29;21.40;73.70
66568;DHT22;53422;49.296;6.900;2022-09-09T14:46:55;21.40;74.30
66568;DHT22;53422;49.296;6.900;2022-09-09T14:49:21;21.40;73.40
66568;DHT22;53422;49.296;6.900;2022-09-09T14:51:46;21.50;72.90
66568;DHT22;53422;49.296;6.900;2022-09-09T14:54:12;21.40;73.10
66568;DHT22;53422;49.296;6.900;2022-09-09T14:56:38;21.40;73.00
66568;DHT22;53422;49.296;6.900;2022-09-09T14:59:03;21.50;73.00
66568;DHT22;53422;49.296;6.900;2022-09-09T15:01:30;21.40;72.20
66568;DHT22;53422;49.296;6.900;2022-09-09T15:04:02;21.50;74.70
66568;DHT22;53422;49.296;6.900;2022-09-09T15:06:32;21.50;74.10
66568;DHT22;53422;49.296;6.900;2022-09-09T15:08:58;21.60;73.70
66568;DHT22;53422;49.296;6.900;2022-09-09T15:11:27;21.60;75.10
66568;DHT22;53422;49.296;6.900;2022-09-09T15:13:53;21.60;73.50
66568;DHT22;53422;49.296;6.900;2022-09-09T15:16:21;21.50;73.10
66568;DHT22;53422;49.296;6.900;2022-09-09T15:18:50;21.50;73.80
66568;DHT22;53422;49.296;6.900;2022-09-09T15:21:18;21.50;74.30
66568;DHT22;53422;49.296;6.900;2022-09-09T15:23:44;21.50;74.00
66568;DHT22;53422;49.296;6.900;2022-09-09T15:26:11;21.50;74.80
66568;DHT22;53422;49.296;6.900;2022-09-09T15:28:40;21.40;75.70
66568;DHT22;53422;49.296;6.900;2022-09-09T15:31:17;21.40;75.60
66568;DHT22;53422;49.296;6.900;2022-09-09T15:36:24;21.10;76.50
66568;DHT22;53422;49.296;6.900;2022-09-09T15:38:51;21.10;77.00
66568;DHT22;53422;49.296;6.900;2022-09-09T15:41:19;21.10;76.80
66568;DHT22;53422;49.296;6.900;2022-09-09T15:43:47;21.00;78.90
66568;DHT22;53422;49.296;6.900;2022-09-09T15:48:43;20.80;78.20
66568;DHT22;53422;49.296;6.900;2022-09-09T15:51:14;20.80;77.20
66568;DHT22;53422;49.296;6.900;2022-09-09T15:53:40;20.80;78.60
66568;DHT22;53422;49.296;6.900;2022-09-09T15:56:09;20.70;79.10
66568;DHT22;53422;49.296;6.900;2022-09-09T15:58:35;20.60;79.60
66568;DHT22;53422;49.296;6.900;2022-09-09T16:01:06;20.60;79.20
66568;DHT22;53422;49.296;6.900;2022-09-09T16:03:40;20.50;78.70
66568;DHT22;53422;49.296;6.900;2022-09-09T16:06:08;20.50;77.90
66568;DHT22;53422;49.296;6.900;2022-09-09T16:08:42;20.40;77.70
66568;DHT22;53422;49.296;6.900;2022-09-09T16:11:13;20.30;77.80
66568;DHT22;53422;49.296;6.900;2022-09-09T16:13:43;20.20;77.40
66568;DHT22;53422;49.296;6.900;2022-09-09T16:16:10;20.20;78.10
66568;DHT22;53422;49.296;6.900;2022-09-09T16:18:42;20.10;77.90
66568;DHT22;53422;49.296;6.900;2022-09-09T16:21:13;20.10;78.50
66568;DHT22;53422;49.296;6.900;2022-09-09T16:23:39;20.10;77.90
66568;DHT22;53422;49.296;6.900;2022-09-09T16:26:05;20.10;78.40
66568;DHT22;53422;49.296;6.900;2022-09-09T16:28:31;20.00;78.80
66568;DHT22;53422;49.296;6.900;2022-09-09T16:30:57;20.00;78.40
66568;DHT22;53422;49.296;6.900;2022-09-09T16:33:24;20.00;78.70
66568;DHT22;53422;49.296;6.900;2022-09-09T16:35:51;20.00;78.90
66568;DHT22;53422;49.296;6.900;2022-09-09T16:38:16;20.00;79.00
66568;DHT22;53422;49.296;6.900;2022-09-09T16:40:42;20.00;79.40
66568;DHT22;53422;49.296;6.900;2022-09-09T16:43:08;19.90;79.90
66568;DHT22;53422;49.296;6.900;2022-09-09T16:45:44;19.90;79.80
66568;DHT22;53422;49.296;6.900;2022-09-09T16:48:11;19.90;79.50
66568;DHT22;53422;49.296;6.900;2022-09-09T16:50:37;19.90;79.60
66568;DHT22;53422;49.296;6.900;2022-09-09T16:53:02;19.90;80.40
66568;DHT22;53422;49.296;6.900;2022-09-09T16:55:29;19.90;80.00
66568;DHT22;53422;49.296;6.900;2022-09-09T16:57:55;19.90;80.40
66568;DHT22;53422;49.296;6.900;2022-09-09T17:00:20;19.90;80.00
66568;DHT22;53422;49.296;6.900;2022-09-09T17:02:48;19.90;80.60
66568;DHT22;53422;49.296;6.900;2022-09-09T17:05:14;19.90;81.40
66568;DHT22;53422;49.296;6.900;2022-09-09T17:07:40;19.90;80.30
66568;DHT22;53422;49.296;6.900;2022-09-09T17:10:06;19.90;80.40
66568;DHT22;53422;49.296;6.900;2022-09-09T17:12:32;19.90;80.40
66568;DHT22;53422;49.296;6.900;2022-09-09T17:14:58;19.80;80.40
66568;DHT22;53422;49.296;6.900;2022-09-09T17:17:25;19.80;80.40
66568;DHT22;53422;49.296;6.900;2022-09-09T17:19:52;19.80;80.60
66568;DHT22;53422;49.296;6.900;2022-09-09T17:22:18;19.80;80.60
66568;DHT22;53422;49.296;6.900;2022-09-09T17:24:44;19.70;80.80
66568;DHT22;53422;49.296;6.900;2022-09-09T17:27:09;19.70;80.50
66568;DHT22;53422;49.296;6.900;2022-09-09T17:29:35;19.70;81.10
66568;DHT22;53422;49.296;6.900;2022-09-09T17:32:04;19.70;81.10
66568;DHT22;53422;49.296;6.900;2022-09-09T17:34:30;19.60;81.00
66568;DHT22;53422;49.296;6.900;2022-09-09T17:36:56;19.60;81.20
66568;DHT22;53422;49.296;6.900;2022-09-09T17:39:22;19.60;81.70
66568;DHT22;53422;49.296;6.900;2022-09-09T17:41:48;19.60;81.40
66568;DHT22;53422;49.296;6.900;2022-09-09T17:44:14;19.50;81.20
66568;DHT22;53422;49.296;6.900;2022-09-09T17:46:42;19.50;81.00